sensor_id;sensor_type;location;lat;lon;timestamp;P1;durP1;ratioP1;P2;durP2;ratioP2
74894;SDS011;63447;49.446;8.666;2023-04-29T00:01:26;7.93;;;5.30;;
74894;SDS011;63447;49.446;8.666;2023-04-29T00:03:51;9.07;;;5.37;;
74894;SDS011;63447;49.446;8.666;2023-04-29T00:06:17;8.45;;;5.00;;
74894;SDS011;63447;49.446;8.666;2023-04-29T00:08:47;7.93;;;4.97;;
74894;SDS011;63447;49.446;8.666;2023-04-29T00:11:19;8.32;;;5.28;;
74894;SDS011;63447;49.446;8.666;2023-04-29T00:13:45;8.20;;;4.95;;
74894;SDS011;63447;49.446;8.666;2023-04-29T00:16:10;8.93;;;5.37;;
74894;SDS011;63447;49.446;8.666;2023-04-29T00:18:38;10.07;;;5.73;;
74894;SDS011;63447;49.446;8.666;2023-04-29T00:21:06;10.38;;;5.47;;
74894;SDS011;63447;49.446;8.666;2023-04-29T00:23:32;10.63;;;5.57;;
74894;SDS011;63447;49.446;8.666;2023-04-29T00:25:57;11.25;;;6.03;;
74894;SDS011;63447;49.446;8.666;2023-04-29T00:28:23;11.87;;;5.70;;
74894;SDS011;63447;49.446;8.666;2023-04-29T00:30:48;14.13;;;6.40;;
74894;SDS011;63447;49.446;8.666;2023-04-29T00:33:13;10.67;;;6.00;;
74894;SDS011;63447;49.446;8.666;2023-04-29T00:35:38;13.63;;;6.07;;
74894;SDS011;63447;49.446;8.666;2023-04-29T00:38:04;14.00;;;6.43;;
74894;SDS011;63447;49.446;8.666;2023-04-29T00:40:34;12.40;;;6.57;;
74894;SDS011;63447;49.446;8.666;2023-04-29T00:43:02;18.92;;;7.03;;
74894;SDS011;63447;49.446;8.666;2023-04-29T00:45:27;20.07;;;7.93;;
74894;SDS011;63447;49.446;8.666;2023-04-29T00:47:55;11.18;;;6.63;;
74894;SDS011;63447;49.446;8.666;2023-04-29T00:50:21;16.17;;;7.13;;
74894;SDS011;63447;49.446;8.666;2023-04-29T00:52:49;16.83;;;8.18;;
74894;SDS011;63447;49.446;8.666;2023-04-29T00:55:16;20.45;;;8.40;;
74894;SDS011;63447;49.446;8.666;2023-04-29T00:57:42;16.50;;;8.23;;
74894;SDS011;63447;49.446;8.666;2023-04-29T01:00:08;22.20;;;8.30;;
74894;SDS011;63447;49.446;8.666;2023-04-29T01:02:37;17.38;;;8.85;;
74894;SDS011;63447;49.446;8.666;2023-04-29T01:05:03;18.65;;;8.70;;
74894;SDS011;63447;49.446;8.666;2023-04-29T01:07:30;16.20;;;8.35;;
74894;SDS011;63447;49.446;8.666;2023-04-29T01:15:03;29.60;;;9.40;;
74894;SDS011;63447;49.446;8.666;2023-04-29T01:17:38;35.45;;;10.00;;
74894;SDS011;63447;49.446;8.666;2023-04-29T01:20:08;17.48;;;9.70;;
74894;SDS011;63447;49.446;8.666;2023-04-29T01:22:36;19.05;;;9.70;;
74894;SDS011;63447;49.446;8.666;2023-04-29T01:25:05;19.98;;;11.27;;
74894;SDS011;63447;49.446;8.666;2023-04-29T01:30:06;33.45;;;10.82;;
74894;SDS011;63447;49.446;8.666;2023-04-29T01:32:57;47.95;;;12.38;;
74894;SDS011;63447;49.446;8.666;2023-04-29T01:41:09;25.05;;;11.27;;
74894;SDS011;63447;49.446;8.666;2023-04-29T01:43:39;23.05;;;11.45;;
74894;SDS011;63447;49.446;8.666;2023-04-29T01:46:05;41.83;;;12.15;;
74894;SDS011;63447;49.446;8.666;2023-04-29T01:48:33;22.95;;;11.70;;
74894;SDS011;63447;49.446;8.666;2023-04-29T01:51:02;24.42;;;11.23;;
74894;SDS011;63447;49.446;8.666;2023-04-29T01:53:30;29.67;;;12.05;;
74894;SDS011;63447;49.446;8.666;2023-04-29T01:55:58;25.60;;;11.60;;
74894;SDS011;63447;49.446;8.666;2023-04-29T01:58:26;21.45;;;11.23;;
74894;SDS011;63447;49.446;8.666;2023-04-29T02:00:54;27.80;;;11.77;;
74894;SDS011;63447;49.446;8.666;2023-04-29T02:03:19;24.02;;;11.43;;
74894;SDS011;63447;49.446;8.666;2023-04-29T02:05:45;39.47;;;12.85;;
74894;SDS011;63447;49.446;8.666;2023-04-29T02:08:10;32.97;;;11.10;;
74894;SDS011;63447;49.446;8.666;2023-04-29T02:10:35;26.63;;;12.10;;
74894;SDS011;63447;49.446;8.666;2023-04-29T02:13:03;19.10;;;10.55;;
74894;SDS011;63447;49.446;8.666;2023-04-29T02:15:29;31.67;;;12.35;;
74894;SDS011;63447;49.446;8.666;2023-04-29T02:17:54;24.43;;;11.70;;
74894;SDS011;63447;49.446;8.666;2023-04-29T02:20:19;20.17;;;11.02;;
74894;SDS011;63447;49.446;8.666;2023-04-29T02:22:45;18.70;;;10.18;;
74894;SDS011;63447;49.446;8.666;2023-04-29T02:25:15;19.45;;;10.57;;
74894;SDS011;63447;49.446;8.666;2023-04-29T02:27:41;17.77;;;9.75;;
74894;SDS011;63447;49.446;8.666;2023-04-29T02:30:06;17.50;;;9.67;;
74894;SDS011;63447;49.446;8.666;2023-04-29T02:32:32;16.23;;;9.73;;
74894;SDS011;63447;49.446;8.666;2023-04-29T02:34:57;16.97;;;9.23;;
74894;SDS011;63447;49.446;8.666;2023-04-29T02:37:23;14.97;;;8.90;;
74894;SDS011;63447;49.446;8.666;2023-04-29T02:39:48;14.10;;;8.00;;
74894;SDS011;63447;49.446;8.666;2023-04-29T02:42:13;13.73;;;8.23;;
74894;SDS011;63447;49.446;8.666;2023-04-29T02:44:39;11.47;;;7.10;;
74894;SDS011;63447;49.446;8.666;2023-04-29T02:47:05;8.52;;;5.50;;
74894;SDS011;63447;49.446;8.666;2023-04-29T02:49:32;9.80;;;5.45;;
74894;SDS011;63447;49.446;8.666;2023-04-29T02:51:58;8.83;;;4.67;;
74894;SDS011;63447;49.446;8.666;2023-04-29T02:54:23;7.30;;;4.03;;
74894;SDS011;63447;49.446;8.666;2023-04-29T02:56:48;6.40;;;3.60;;
74894;SDS011;63447;49.446;8.666;2023-04-29T02:59:14;6.55;;;3.78;;
74894;SDS011;63447;49.446;8.666;2023-04-29T03:01:39;5.97;;;3.33;;
74894;SDS011;63447;49.446;8.666;2023-04-29T03:04:08;7.47;;;3.63;;
74894;SDS011;63447;49.446;8.666;2023-04-29T03:06:36;5.50;;;3.10;;
74894;SDS011;63447;49.446;8.666;2023-04-29T03:09:03;6.15;;;3.20;;
74894;SDS011;63447;49.446;8.666;2023-04-29T03:11:29;7.10;;;3.30;;
74894;SDS011;63447;49.446;8.666;2023-04-29T03:13:54;4.97;;;2.72;;
74894;SDS011;63447;49.446;8.666;2023-04-29T03:16:20;7.13;;;2.90;;
74894;SDS011;63447;49.446;8.666;2023-04-29T03:18:46;6.50;;;2.78;;
74894;SDS011;63447;49.446;8.666;2023-04-29T03:21:11;6.15;;;3.80;;
74894;SDS011;63447;49.446;8.666;2023-04-29T03:23:36;7.57;;;4.25;;
74894;SDS011;63447;49.446;8.666;2023-04-29T03:26:04;7.40;;;4.43;;
74894;SDS011;63447;49.446;8.666;2023-04-29T03:28:32;6.90;;;4.57;;
74894;SDS011;63447;49.446;8.666;2023-04-29T03:30:57;8.15;;;4.53;;
74894;SDS011;63447;49.446;8.666;2023-04-29T03:33:23;7.20;;;4.18;;
74894;SDS011;63447;49.446;8.666;2023-04-29T03:35:53;8.93;;;4.45;;
74894;SDS011;63447;49.446;8.666;2023-04-29T03:38:19;6.40;;;3.42;;
74894;SDS011;63447;49.446;8.666;2023-04-29T03:40:45;5.00;;;2.97;;
74894;SDS011;63447;49.446;8.666;2023-04-29T03:43:10;6.35;;;2.90;;
74894;SDS011;63447;49.446;8.666;2023-04-29T03:45:37;5.20;;;2.70;;
74894;SDS011;63447;49.446;8.666;2023-04-29T03:48:05;4.90;;;2.58;;
74894;SDS011;63447;49.446;8.666;2023-04-29T03:50:35;4.88;;;2.47;;
74894;SDS011;63447;49.446;8.666;2023-04-29T03:53:03;4.80;;;2.33;;
74894;SDS011;63447;49.446;8.666;2023-04-29T03:55:29;5.05;;;2.30;;
74894;SDS011;63447;49.446;8.666;2023-04-29T03:57:59;5.07;;;2.40;;
74894;SDS011;63447;49.446;8.666;2023-04-29T04:00:25;6.10;;;2.50;;
74894;SDS011;63447;49.446;8.666;2023-04-29T04:02:50;5.35;;;2.42;;
74894;SDS011;63447;49.446;8.666;2023-04-29T04:05:18;4.53;;;2.20;;
74894;SDS011;63447;49.446;8.666;2023-04-29T04:07:48;5.18;;;2.60;;
74894;SDS011;63447;49.446;8.666;2023-04-29T04:10:14;5.68;;;2.97;;
74894;SDS011;63447;49.446;8.666;2023-04-29T04:12:39;4.30;;;2.20;;
74894;SDS011;63447;49.446;8.666;2023-04-29T04:15:04;4.50;;;2.20;;
74894;SDS011;63447;49.446;8.666;2023-04-29T04:17:32;6.50;;;2.60;;
74894;SDS011;63447;49.446;8.666;2023-04-29T04:19:58;6.40;;;2.90;;
74894;SDS011;63447;49.446;8.666;2023-04-29T04:22:26;7.78;;;2.65;;
74894;SDS011;63447;49.446;8.666;2023-04-29T04:24:53;5.30;;;2.42;;
74894;SDS011;63447;49.446;8.666;2023-04-29T04:27:19;4.43;;;2.30;;
74894;SDS011;63447;49.446;8.666;2023-04-29T04:29:44;4.40;;;2.25;;
74894;SDS011;63447;49.446;8.666;2023-04-29T04:32:10;4.15;;;2.05;;
74894;SDS011;63447;49.446;8.666;2023-04-29T04:34:35;4.30;;;1.93;;
74894;SDS011;63447;49.446;8.666;2023-04-29T04:37:01;5.30;;;2.08;;
74894;SDS011;63447;49.446;8.666;2023-04-29T04:39:29;4.70;;;1.98;;
74894;SDS011;63447;49.446;8.666;2023-04-29T04:41:54;5.60;;;1.80;;
74894;SDS011;63447;49.446;8.666;2023-04-29T04:44:22;3.77;;;1.70;;
74894;SDS011;63447;49.446;8.666;2023-04-29T04:46:47;4.05;;;1.52;;
74894;SDS011;63447;49.446;8.666;2023-04-29T04:49:14;4.45;;;1.75;;
74894;SDS011;63447;49.446;8.666;2023-04-29T04:51:42;4.57;;;2.10;;
74894;SDS011;63447;49.446;8.666;2023-04-29T04:54:11;4.68;;;1.70;;
74894;SDS011;63447;49.446;8.666;2023-04-29T04:56:38;3.58;;;1.40;;
74894;SDS011;63447;49.446;8.666;2023-04-29T04:59:04;5.07;;;1.60;;
74894;SDS011;63447;49.446;8.666;2023-04-29T05:01:29;5.07;;;2.00;;
74894;SDS011;63447;49.446;8.666;2023-04-29T05:03:54;6.00;;;1.70;;
74894;SDS011;63447;49.446;8.666;2023-04-29T05:06:20;3.73;;;1.50;;
74894;SDS011;63447;49.446;8.666;2023-04-29T05:08:47;5.75;;;1.75;;
74894;SDS011;63447;49.446;8.666;2023-04-29T05:11:17;4.55;;;1.60;;
74894;SDS011;63447;49.446;8.666;2023-04-29T05:13:46;4.40;;;1.70;;
74894;SDS011;63447;49.446;8.666;2023-04-29T05:16:14;3.50;;;1.45;;
74894;SDS011;63447;49.446;8.666;2023-04-29T05:18:42;4.65;;;1.42;;
74894;SDS011;63447;49.446;8.666;2023-04-29T05:21:09;5.72;;;1.88;;
74894;SDS011;63447;49.446;8.666;2023-04-29T05:23:35;6.32;;;1.92;;
74894;SDS011;63447;49.446;8.666;2023-04-29T05:26:03;4.35;;;1.60;;
74894;SDS011;63447;49.446;8.666;2023-04-29T05:28:28;3.50;;;1.40;;
74894;SDS011;63447;49.446;8.666;2023-04-29T05:30:54;4.47;;;1.90;;
74894;SDS011;63447;49.446;8.666;2023-04-29T05:33:21;4.13;;;1.60;;
74894;SDS011;63447;49.446;8.666;2023-04-29T05:35:49;5.32;;;1.80;;
74894;SDS011;63447;49.446;8.666;2023-04-29T05:38:15;3.63;;;1.53;;
74894;SDS011;63447;49.446;8.666;2023-04-29T05:40:40;4.40;;;1.73;;
74894;SDS011;63447;49.446;8.666;2023-04-29T05:43:08;4.00;;;1.75;;
74894;SDS011;63447;49.446;8.666;2023-04-29T05:45:36;3.85;;;1.65;;
74894;SDS011;63447;49.446;8.666;2023-04-29T05:48:01;4.53;;;1.80;;
74894;SDS011;63447;49.446;8.666;2023-04-29T05:50:27;3.90;;;1.70;;
74894;SDS011;63447;49.446;8.666;2023-04-29T05:52:52;7.83;;;2.17;;
74894;SDS011;63447;49.446;8.666;2023-04-29T05:55:20;4.32;;;2.05;;
74894;SDS011;63447;49.446;8.666;2023-04-29T05:57:46;5.28;;;2.10;;
74894;SDS011;63447;49.446;8.666;2023-04-29T06:00:11;4.57;;;2.22;;
74894;SDS011;63447;49.446;8.666;2023-04-29T06:02:42;5.22;;;2.40;;
74894;SDS011;63447;49.446;8.666;2023-04-29T06:05:12;5.78;;;2.15;;
74894;SDS011;63447;49.446;8.666;2023-04-29T06:07:39;4.57;;;2.15;;
74894;SDS011;63447;49.446;8.666;2023-04-29T06:10:07;4.93;;;2.30;;
74894;SDS011;63447;49.446;8.666;2023-04-29T06:12:32;4.85;;;2.00;;
74894;SDS011;63447;49.446;8.666;2023-04-29T06:14:58;5.43;;;2.10;;
74894;SDS011;63447;49.446;8.666;2023-04-29T06:17:24;5.28;;;2.20;;
74894;SDS011;63447;49.446;8.666;2023-04-29T06:19:49;5.20;;;2.20;;
74894;SDS011;63447;49.446;8.666;2023-04-29T06:22:14;5.10;;;2.20;;
74894;SDS011;63447;49.446;8.666;2023-04-29T06:24:45;3.78;;;1.83;;
74894;SDS011;63447;49.446;8.666;2023-04-29T06:27:11;5.03;;;2.22;;
74894;SDS011;63447;49.446;8.666;2023-04-29T06:29:39;5.15;;;2.15;;
74894;SDS011;63447;49.446;8.666;2023-04-29T06:32:04;4.72;;;2.30;;
74894;SDS011;63447;49.446;8.666;2023-04-29T06:34:32;4.72;;;2.50;;
74894;SDS011;63447;49.446;8.666;2023-04-29T06:36:57;6.88;;;2.92;;
74894;SDS011;63447;49.446;8.666;2023-04-29T06:39:22;6.30;;;3.85;;
74894;SDS011;63447;49.446;8.666;2023-04-29T06:41:48;6.57;;;3.50;;
74894;SDS011;63447;49.446;8.666;2023-04-29T06:44:13;7.57;;;4.30;;
74894;SDS011;63447;49.446;8.666;2023-04-29T06:46:43;9.20;;;4.28;;
74894;SDS011;63447;49.446;8.666;2023-04-29T06:49:09;9.47;;;5.93;;
74894;SDS011;63447;49.446;8.666;2023-04-29T06:51:36;10.73;;;6.05;;
74894;SDS011;63447;49.446;8.666;2023-04-29T06:54:06;10.60;;;6.10;;
74894;SDS011;63447;49.446;8.666;2023-04-29T06:56:34;10.30;;;6.40;;
74894;SDS011;63447;49.446;8.666;2023-04-29T06:59:02;13.30;;;7.10;;
74894;SDS011;63447;49.446;8.666;2023-04-29T07:01:37;12.18;;;7.35;;
74894;SDS011;63447;49.446;8.666;2023-04-29T07:04:03;11.43;;;6.45;;
74894;SDS011;63447;49.446;8.666;2023-04-29T07:06:29;11.45;;;6.82;;
74894;SDS011;63447;49.446;8.666;2023-04-29T07:08:54;13.37;;;7.30;;
74894;SDS011;63447;49.446;8.666;2023-04-29T07:11:19;13.03;;;7.30;;
74894;SDS011;63447;49.446;8.666;2023-04-29T07:13:45;12.02;;;7.32;;
74894;SDS011;63447;49.446;8.666;2023-04-29T07:16:14;12.90;;;7.75;;
74894;SDS011;63447;49.446;8.666;2023-04-29T07:18:40;13.35;;;7.40;;
74894;SDS011;63447;49.446;8.666;2023-04-29T07:21:06;12.27;;;7.60;;
74894;SDS011;63447;49.446;8.666;2023-04-29T07:23:32;14.80;;;7.88;;
74894;SDS011;63447;49.446;8.666;2023-04-29T07:26:02;15.38;;;8.25;;
74894;SDS011;63447;49.446;8.666;2023-04-29T07:28:35;14.65;;;7.90;;
74894;SDS011;63447;49.446;8.666;2023-04-29T07:31:01;13.63;;;8.10;;
74894;SDS011;63447;49.446;8.666;2023-04-29T07:33:28;14.15;;;7.25;;
74894;SDS011;63447;49.446;8.666;2023-04-29T07:35:54;12.45;;;8.02;;
74894;SDS011;63447;49.446;8.666;2023-04-29T07:38:20;18.30;;;8.07;;
74894;SDS011;63447;49.446;8.666;2023-04-29T07:40:45;13.20;;;7.63;;
74894;SDS011;63447;49.446;8.666;2023-04-29T07:43:13;12.63;;;7.22;;
74894;SDS011;63447;49.446;8.666;2023-04-29T07:45:39;11.95;;;7.13;;
74894;SDS011;63447;49.446;8.666;2023-04-29T07:48:05;13.27;;;7.63;;
74894;SDS011;63447;49.446;8.666;2023-04-29T07:50:35;12.98;;;7.60;;
74894;SDS011;63447;49.446;8.666;2023-04-29T07:53:03;12.43;;;7.35;;
74894;SDS011;63447;49.446;8.666;2023-04-29T07:55:29;13.60;;;7.70;;
74894;SDS011;63447;49.446;8.666;2023-04-29T07:57:55;12.18;;;7.18;;
74894;SDS011;63447;49.446;8.666;2023-04-29T08:00:21;13.25;;;7.50;;
74894;SDS011;63447;49.446;8.666;2023-04-29T08:02:50;13.68;;;7.13;;
74894;SDS011;63447;49.446;8.666;2023-04-29T08:05:19;14.13;;;7.28;;
74894;SDS011;63447;49.446;8.666;2023-04-29T08:07:49;12.73;;;7.03;;
74894;SDS011;63447;49.446;8.666;2023-04-29T08:10:16;12.40;;;7.32;;
74894;SDS011;63447;49.446;8.666;2023-04-29T08:12:49;14.18;;;7.53;;
74894;SDS011;63447;49.446;8.666;2023-04-29T08:15:14;12.30;;;7.05;;
74894;SDS011;63447;49.446;8.666;2023-04-29T08:17:42;12.13;;;6.50;;
74894;SDS011;63447;49.446;8.666;2023-04-29T08:20:11;12.10;;;7.03;;
74894;SDS011;63447;49.446;8.666;2023-04-29T08:22:39;12.02;;;6.95;;
74894;SDS011;63447;49.446;8.666;2023-04-29T08:25:09;12.45;;;6.72;;
74894;SDS011;63447;49.446;8.666;2023-04-29T08:27:35;12.35;;;6.75;;
74894;SDS011;63447;49.446;8.666;2023-04-29T08:30:00;13.27;;;6.57;;
74894;SDS011;63447;49.446;8.666;2023-04-29T08:32:28;13.48;;;7.25;;
74894;SDS011;63447;49.446;8.666;2023-04-29T08:34:56;13.95;;;7.72;;
74894;SDS011;63447;49.446;8.666;2023-04-29T08:37:27;11.45;;;6.53;;
74894;SDS011;63447;49.446;8.666;2023-04-29T08:39:52;13.63;;;7.57;;
74894;SDS011;63447;49.446;8.666;2023-04-29T08:42:23;13.43;;;7.00;;
74894;SDS011;63447;49.446;8.666;2023-04-29T08:45:01;12.40;;;6.53;;
74894;SDS011;63447;49.446;8.666;2023-04-29T08:47:31;12.80;;;6.85;;
74894;SDS011;63447;49.446;8.666;2023-04-29T08:50:02;10.95;;;6.00;;
74894;SDS011;63447;49.446;8.666;2023-04-29T08:52:31;11.65;;;6.45;;
74894;SDS011;63447;49.446;8.666;2023-04-29T08:54:57;11.75;;;6.28;;
74894;SDS011;63447;49.446;8.666;2023-04-29T08:57:26;11.88;;;6.30;;
74894;SDS011;63447;49.446;8.666;2023-04-29T08:59:53;12.90;;;6.65;;
74894;SDS011;63447;49.446;8.666;2023-04-29T09:02:21;12.77;;;7.40;;
74894;SDS011;63447;49.446;8.666;2023-04-29T09:04:59;11.65;;;6.63;;
74894;SDS011;63447;49.446;8.666;2023-04-29T09:07:30;12.98;;;6.70;;
74894;SDS011;63447;49.446;8.666;2023-04-29T09:09:57;10.40;;;5.90;;
74894;SDS011;63447;49.446;8.666;2023-04-29T09:12:23;11.20;;;5.93;;
74894;SDS011;63447;49.446;8.666;2023-04-29T09:14:50;12.73;;;6.38;;
74894;SDS011;63447;49.446;8.666;2023-04-29T09:17:15;13.00;;;6.47;;
74894;SDS011;63447;49.446;8.666;2023-04-29T09:19:41;12.75;;;6.50;;
74894;SDS011;63447;49.446;8.666;2023-04-29T09:22:11;11.57;;;6.20;;
74894;SDS011;63447;49.446;8.666;2023-04-29T09:24:39;11.43;;;6.22;;
74894;SDS011;63447;49.446;8.666;2023-04-29T09:27:04;12.57;;;6.55;;
74894;SDS011;63447;49.446;8.666;2023-04-29T09:29:33;11.02;;;5.95;;
74894;SDS011;63447;49.446;8.666;2023-04-29T09:32:17;11.32;;;5.85;;
74894;SDS011;63447;49.446;8.666;2023-04-29T09:34:43;11.32;;;5.97;;
74894;SDS011;63447;49.446;8.666;2023-04-29T09:37:26;11.30;;;6.13;;
74894;SDS011;63447;49.446;8.666;2023-04-29T09:42:20;10.40;;;5.50;;
74894;SDS011;63447;49.446;8.666;2023-04-29T09:44:45;9.40;;;5.20;;
74894;SDS011;63447;49.446;8.666;2023-04-29T09:47:18;8.95;;;5.03;;
74894;SDS011;63447;49.446;8.666;2023-04-29T09:49:56;10.32;;;4.78;;
74894;SDS011;63447;49.446;8.666;2023-04-29T09:52:42;10.55;;;5.50;;
74894;SDS011;63447;49.446;8.666;2023-04-29T09:55:07;10.10;;;5.07;;
74894;SDS011;63447;49.446;8.666;2023-04-29T09:57:39;11.32;;;5.10;;
74894;SDS011;63447;49.446;8.666;2023-04-29T10:00:08;8.98;;;4.85;;
74894;SDS011;63447;49.446;8.666;2023-04-29T10:02:34;9.13;;;4.60;;
74894;SDS011;63447;49.446;8.666;2023-04-29T10:05:03;9.10;;;4.57;;
74894;SDS011;63447;49.446;8.666;2023-04-29T10:07:28;11.02;;;5.10;;
74894;SDS011;63447;49.446;8.666;2023-04-29T10:09:56;7.68;;;4.28;;
74894;SDS011;63447;49.446;8.666;2023-04-29T10:12:22;8.85;;;4.60;;
74894;SDS011;63447;49.446;8.666;2023-04-29T10:15:03;8.52;;;4.63;;
74894;SDS011;63447;49.446;8.666;2023-04-29T10:20:12;6.70;;;3.42;;
74894;SDS011;63447;49.446;8.666;2023-04-29T10:22:46;7.55;;;3.72;;
74894;SDS011;63447;49.446;8.666;2023-04-29T10:25:17;7.28;;;4.45;;
74894;SDS011;63447;49.446;8.666;2023-04-29T10:27:46;8.10;;;4.35;;
74894;SDS011;63447;49.446;8.666;2023-04-29T10:30:13;7.25;;;4.22;;
74894;SDS011;63447;49.446;8.666;2023-04-29T10:32:40;7.45;;;4.03;;
74894;SDS011;63447;49.446;8.666;2023-04-29T10:35:08;7.40;;;4.10;;
74894;SDS011;63447;49.446;8.666;2023-04-29T10:37:37;8.27;;;4.30;;
74894;SDS011;63447;49.446;8.666;2023-04-29T10:45:22;7.05;;;3.80;;
74894;SDS011;63447;49.446;8.666;2023-04-29T10:53:02;9.10;;;4.60;;
74894;SDS011;63447;49.446;8.666;2023-04-29T10:55:31;8.32;;;4.18;;
74894;SDS011;63447;49.446;8.666;2023-04-29T10:58:05;8.10;;;4.80;;
74894;SDS011;63447;49.446;8.666;2023-04-29T11:00:53;7.00;;;3.60;;
74894;SDS011;63447;49.446;8.666;2023-04-29T11:06:10;6.90;;;3.75;;
74894;SDS011;63447;49.446;8.666;2023-04-29T11:08:36;6.05;;;2.75;;
74894;SDS011;63447;49.446;8.666;2023-04-29T11:11:03;5.85;;;2.83;;
74894;SDS011;63447;49.446;8.666;2023-04-29T11:13:36;5.70;;;2.85;;
74894;SDS011;63447;49.446;8.666;2023-04-29T11:18:36;5.95;;;3.30;;
74894;SDS011;63447;49.446;8.666;2023-04-29T11:21:35;7.55;;;3.75;;
74894;SDS011;63447;49.446;8.666;2023-04-29T11:24:01;7.43;;;3.55;;
74894;SDS011;63447;49.446;8.666;2023-04-29T11:26:28;7.25;;;3.35;;
74894;SDS011;63447;49.446;8.666;2023-04-29T11:28:58;6.78;;;3.53;;
74894;SDS011;63447;49.446;8.666;2023-04-29T11:31:30;6.60;;;3.90;;
74894;SDS011;63447;49.446;8.666;2023-04-29T11:33:56;6.68;;;3.22;;
74894;SDS011;63447;49.446;8.666;2023-04-29T11:36:22;6.53;;;3.83;;
74894;SDS011;63447;49.446;8.666;2023-04-29T11:38:48;6.40;;;2.80;;
74894;SDS011;63447;49.446;8.666;2023-04-29T11:41:13;5.97;;;2.88;;
74894;SDS011;63447;49.446;8.666;2023-04-29T11:43:39;6.80;;;3.30;;
74894;SDS011;63447;49.446;8.666;2023-04-29T11:46:13;7.32;;;4.07;;
74894;SDS011;63447;49.446;8.666;2023-04-29T11:48:46;7.22;;;3.65;;
74894;SDS011;63447;49.446;8.666;2023-04-29T11:51:13;7.13;;;3.63;;
74894;SDS011;63447;49.446;8.666;2023-04-29T11:53:39;7.05;;;3.63;;
74894;SDS011;63447;49.446;8.666;2023-04-29T11:56:05;7.63;;;3.92;;
74894;SDS011;63447;49.446;8.666;2023-04-29T11:58:32;8.73;;;3.90;;
74894;SDS011;63447;49.446;8.666;2023-04-29T12:01:01;7.72;;;4.47;;
74894;SDS011;63447;49.446;8.666;2023-04-29T12:03:28;6.60;;;3.70;;
74894;SDS011;63447;49.446;8.666;2023-04-29T12:05:55;7.78;;;4.00;;
74894;SDS011;63447;49.446;8.666;2023-04-29T12:08:24;7.82;;;4.63;;
74894;SDS011;63447;49.446;8.666;2023-04-29T12:10:54;6.25;;;3.42;;
74894;SDS011;63447;49.446;8.666;2023-04-29T12:13:25;8.73;;;4.55;;
74894;SDS011;63447;49.446;8.666;2023-04-29T12:15:52;7.72;;;4.00;;
74894;SDS011;63447;49.446;8.666;2023-04-29T12:18:22;7.15;;;4.07;;
74894;SDS011;63447;49.446;8.666;2023-04-29T12:20:48;8.18;;;3.72;;
74894;SDS011;63447;49.446;8.666;2023-04-29T12:23:18;6.20;;;3.33;;
74894;SDS011;63447;49.446;8.666;2023-04-29T12:25:50;6.53;;;3.17;;
74894;SDS011;63447;49.446;8.666;2023-04-29T12:28:20;7.25;;;3.42;;
74894;SDS011;63447;49.446;8.666;2023-04-29T12:30:49;6.25;;;3.15;;
74894;SDS011;63447;49.446;8.666;2023-04-29T12:35:51;5.57;;;2.90;;
74894;SDS011;63447;49.446;8.666;2023-04-29T12:38:22;7.13;;;2.90;;
74894;SDS011;63447;49.446;8.666;2023-04-29T12:40:51;7.60;;;2.90;;
74894;SDS011;63447;49.446;8.666;2023-04-29T12:43:28;7.85;;;3.17;;
74894;SDS011;63447;49.446;8.666;2023-04-29T12:46:07;6.13;;;3.00;;
74894;SDS011;63447;49.446;8.666;2023-04-29T12:48:34;7.10;;;3.00;;
74894;SDS011;63447;49.446;8.666;2023-04-29T12:51:02;6.43;;;2.92;;
74894;SDS011;63447;49.446;8.666;2023-04-29T12:53:28;6.65;;;3.22;;
74894;SDS011;63447;49.446;8.666;2023-04-29T12:55:58;5.95;;;2.60;;
74894;SDS011;63447;49.446;8.666;2023-04-29T12:58:27;5.70;;;2.90;;
74894;SDS011;63447;49.446;8.666;2023-04-29T13:00:54;5.65;;;2.92;;
74894;SDS011;63447;49.446;8.666;2023-04-29T13:03:22;7.65;;;3.72;;
74894;SDS011;63447;49.446;8.666;2023-04-29T13:05:47;6.78;;;3.20;;
74894;SDS011;63447;49.446;8.666;2023-04-29T13:08:16;7.05;;;3.60;;
74894;SDS011;63447;49.446;8.666;2023-04-29T13:10:44;6.25;;;3.47;;
74894;SDS011;63447;49.446;8.666;2023-04-29T13:13:11;8.65;;;4.47;;
74894;SDS011;63447;49.446;8.666;2023-04-29T13:15:37;5.78;;;3.00;;
74894;SDS011;63447;49.446;8.666;2023-04-29T13:18:07;5.13;;;2.65;;
74894;SDS011;63447;49.446;8.666;2023-04-29T13:20:33;6.32;;;3.47;;
74894;SDS011;63447;49.446;8.666;2023-04-29T13:22:59;6.55;;;3.50;;
74894;SDS011;63447;49.446;8.666;2023-04-29T13:25:26;6.32;;;3.30;;
74894;SDS011;63447;49.446;8.666;2023-04-29T13:27:52;6.80;;;3.63;;
74894;SDS011;63447;49.446;8.666;2023-04-29T13:30:19;7.20;;;3.88;;
74894;SDS011;63447;49.446;8.666;2023-04-29T13:32:47;9.13;;;3.78;;
74894;SDS011;63447;49.446;8.666;2023-04-29T13:35:15;6.32;;;3.55;;
74894;SDS011;63447;49.446;8.666;2023-04-29T13:37:40;7.00;;;3.50;;
74894;SDS011;63447;49.446;8.666;2023-04-29T13:40:06;7.35;;;4.00;;
74894;SDS011;63447;49.446;8.666;2023-04-29T13:42:32;6.57;;;3.50;;
74894;SDS011;63447;49.446;8.666;2023-04-29T13:45:00;8.20;;;3.88;;
74894;SDS011;63447;49.446;8.666;2023-04-29T13:47:27;6.97;;;3.65;;
74894;SDS011;63447;49.446;8.666;2023-04-29T13:49:53;7.47;;;4.15;;
74894;SDS011;63447;49.446;8.666;2023-04-29T13:52:18;6.82;;;3.95;;
74894;SDS011;63447;49.446;8.666;2023-04-29T13:54:46;7.22;;;3.85;;
74894;SDS011;63447;49.446;8.666;2023-04-29T13:57:11;7.83;;;3.73;;
74894;SDS011;63447;49.446;8.666;2023-04-29T13:59:36;8.63;;;4.47;;
74894;SDS011;63447;49.446;8.666;2023-04-29T14:02:02;8.10;;;4.20;;
74894;SDS011;63447;49.446;8.666;2023-04-29T14:04:27;7.65;;;3.95;;
74894;SDS011;63447;49.446;8.666;2023-04-29T14:06:56;7.10;;;3.58;;
74894;SDS011;63447;49.446;8.666;2023-04-29T14:09:21;7.00;;;3.53;;
74894;SDS011;63447;49.446;8.666;2023-04-29T14:11:48;7.10;;;3.60;;
74894;SDS011;63447;49.446;8.666;2023-04-29T14:14:14;7.32;;;3.70;;
74894;SDS011;63447;49.446;8.666;2023-04-29T14:16:42;6.30;;;3.33;;
74894;SDS011;63447;49.446;8.666;2023-04-29T14:19:08;6.47;;;3.20;;
74894;SDS011;63447;49.446;8.666;2023-04-29T14:21:33;6.70;;;3.63;;
74894;SDS011;63447;49.446;8.666;2023-04-29T14:24:02;7.68;;;4.05;;
74894;SDS011;63447;49.446;8.666;2023-04-29T14:26:27;6.97;;;3.50;;
74894;SDS011;63447;49.446;8.666;2023-04-29T14:28:56;8.05;;;3.85;;
74894;SDS011;63447;49.446;8.666;2023-04-29T14:31:27;6.55;;;3.53;;
74894;SDS011;63447;49.446;8.666;2023-04-29T14:33:54;8.30;;;3.30;;
74894;SDS011;63447;49.446;8.666;2023-04-29T14:36:27;6.50;;;3.30;;
74894;SDS011;63447;49.446;8.666;2023-04-29T14:38:52;6.57;;;4.03;;
74894;SDS011;63447;49.446;8.666;2023-04-29T14:41:20;7.93;;;3.88;;
74894;SDS011;63447;49.446;8.666;2023-04-29T14:43:48;7.38;;;3.85;;
74894;SDS011;63447;49.446;8.666;2023-04-29T14:46:16;7.00;;;3.45;;
74894;SDS011;63447;49.446;8.666;2023-04-29T14:48:47;8.90;;;4.22;;
74894;SDS011;63447;49.446;8.666;2023-04-29T14:51:12;6.70;;;3.72;;
74894;SDS011;63447;49.446;8.666;2023-04-29T14:53:38;7.47;;;3.30;;
74894;SDS011;63447;49.446;8.666;2023-04-29T14:56:03;5.73;;;3.03;;
74894;SDS011;63447;49.446;8.666;2023-04-29T14:58:29;7.07;;;3.00;;
74894;SDS011;63447;49.446;8.666;2023-04-29T15:00:55;5.78;;;2.90;;
74894;SDS011;63447;49.446;8.666;2023-04-29T15:03:22;5.78;;;3.05;;
74894;SDS011;63447;49.446;8.666;2023-04-29T15:05:48;7.28;;;3.42;;
74894;SDS011;63447;49.446;8.666;2023-04-29T15:08:19;6.32;;;3.42;;
74894;SDS011;63447;49.446;8.666;2023-04-29T15:10:44;5.78;;;2.90;;
74894;SDS011;63447;49.446;8.666;2023-04-29T15:13:11;6.03;;;3.20;;
74894;SDS011;63447;49.446;8.666;2023-04-29T15:15:39;8.25;;;3.45;;
74894;SDS011;63447;49.446;8.666;2023-04-29T15:18:09;6.05;;;3.28;;
74894;SDS011;63447;49.446;8.666;2023-04-29T15:20:35;6.30;;;2.80;;
74894;SDS011;63447;49.446;8.666;2023-04-29T15:23:03;5.82;;;2.78;;